Time;durP1;ratioP1;P1;durP2;ratioP2;P2;SDS_P1;SDS_P2;PMS_P1;PMS_P2;Temp;Humidity;BMP_temperature;BMP_pressure;BME280_temperature;BME280_humidity;BME280_pressure;Samples;Min_cycle;Max_cycle;Signal;HPM_P1;HPM_P2
2023/12/22 00:02:14;;;;;;;27.00;3.90;;;;;;;7.48;75.70;97894.19;4993594;28;20046;-74
2023/12/22 00:04:40;;;;;;;25.42;4.63;;;;;;;7.49;75.33;97895.88;4993521;28;20053;-75
2023/12/22 00:07:07;;;;;;;20.40;4.32;;;;;;;7.49;75.36;97904.56;4993103;28;20419;-75
2023/12/22 00:09:33;;;;;;;26.52;5.25;;;;;;;7.51;75.26;97933.25;4998410;28;20054;-74
2023/12/22 00:12:00;;;;;;;23.50;4.50;;;;;;;7.52;75.50;97934.91;5011596;28;20147;-75
2023/12/22 00:14:26;;;;;;;28.95;4.32;;;;;;;7.53;75.73;97926.94;5012272;28;20058;-75
2023/12/22 00:16:53;;;;;;;25.35;4.80;;;;;;;7.55;75.63;97934.66;5012200;28;20124;-75
2023/12/22 00:19:20;;;;;;;24.67;3.83;;;;;;;7.56;75.38;97921.47;5011394;28;20069;-74
2023/12/22 00:21:46;;;;;;;27.52;4.47;;;;;;;7.59;75.57;97937.91;4992581;28;20080;-77
2023/12/22 00:24:13;;;;;;;24.88;3.72;;;;;;;7.59;75.21;97935.28;4992361;28;20046;-76
2023/12/22 00:26:40;;;;;;;21.60;3.72;;;;;;;7.59;74.71;97930.88;4992908;28;20050;-75
2023/12/22 00:29:06;;;;;;;23.30;3.90;;;;;;;7.59;74.56;97933.50;4992543;28;20061;-75
2023/12/22 00:31:33;;;;;;;22.10;4.47;;;;;;;7.59;74.77;97941.34;5007161;28;20045;-76
2023/12/22 00:34:01;;;;;;;23.00;4.20;;;;;;;7.58;74.74;97933.63;5012121;28;20470;-75
2023/12/22 00:36:27;;;;;;;25.85;4.75;;;;;;;7.58;74.75;97942.31;5011501;28;20100;-76
2023/12/22 00:38:54;;;;;;;23.45;4.10;;;;;;;7.57;74.92;97938.03;4994363;28;20483;-75
2023/12/22 00:41:20;;;;;;;17.42;4.30;;;;;;;7.57;74.64;97938.03;5000422;28;20389;-75
2023/12/22 00:43:47;;;;;;;22.10;4.07;;;;;;;7.58;74.55;97938.88;4992356;28;20046;-75
2023/12/22 00:46:14;;;;;;;26.08;4.53;;;;;;;7.58;74.49;97939.69;4992537;28;20091;-73
2023/12/22 00:48:40;;;;;;;28.13;4.85;;;;;;;7.60;75.24;97935.19;4992188;28;20057;-72
2023/12/22 00:51:07;;;;;;;25.60;4.68;;;;;;;7.61;74.84;97934.22;4998434;28;20042;-76
2023/12/22 00:53:34;;;;;;;21.70;4.13;;;;;;;7.62;74.77;97932.47;5017553;23;20104;-77
2023/12/22 00:56:02;;;;;;;20.67;4.70;;;;;;;7.62;74.40;97959.47;5012433;28;20056;-77
2023/12/22 00:58:30;;;;;;;23.02;4.20;;;;;;;7.64;74.15;97956.72;5012007;28;20585;-80
2023/12/22 01:00:56;;;;;;;22.23;4.10;;;;;;;7.66;74.57;97974.00;5011505;28;20480;-76
2023/12/22 01:03:23;;;;;;;21.15;3.85;;;;;;;7.67;74.11;97954.72;5011878;28;20048;-77
2023/12/22 01:05:49;;;;;;;20.98;3.92;;;;;;;7.69;74.15;97963.31;5011955;28;20496;-79
2023/12/22 01:08:16;;;;;;;21.42;4.03;;;;;;;7.69;73.17;97963.31;5011439;28;20136;-78
2023/12/22 01:10:42;;;;;;;15.85;3.72;;;;;;;7.71;74.18;97970.22;5011738;28;20081;-76
2023/12/22 01:13:09;;;;;;;25.35;4.53;;;;;;;7.69;73.51;97976.41;4993676;28;20403;-76
2023/12/22 01:15:35;;;;;;;21.65;3.95;;;;;;;7.68;73.59;97960.78;4992053;28;20132;-77
2023/12/22 01:18:02;;;;;;;28.20;4.25;;;;;;;7.65;73.67;97988.03;4991790;28;20046;-81
2023/12/22 01:20:29;;;;;;;17.75;3.35;;;;;;;7.65;74.16;97977.56;4992044;28;20043;-77
2023/12/22 01:22:55;;;;;;;23.75;3.83;;;;;;;7.62;73.86;97972.56;4987057;28;20120;-77
2023/12/22 01:25:23;;;;;;;19.45;3.78;;;;;;;7.60;73.47;97963.13;5009807;28;20056;-76
2023/12/22 01:27:52;;;;;;;13.73;3.17;;;;;;;7.56;73.18;97973.84;4993828;28;20045;-76
2023/12/22 01:30:18;;;;;;;16.20;2.90;;;;;;;7.52;73.08;97993.34;5011489;28;20044;-77
2023/12/22 01:32:45;;;;;;;21.38;3.65;;;;;;;7.49;73.88;98000.59;5011266;28;20057;-79
2023/12/22 01:35:11;;;;;;;19.08;3.35;;;;;;;7.43;73.95;97992.22;5011488;28;20482;-76
2023/12/22 01:37:38;;;;;;;25.35;4.97;;;;;;;7.41;74.55;97993.28;4994903;28;20042;-77
2023/12/22 01:40:05;;;;;;;19.98;3.42;;;;;;;7.40;74.36;97983.78;4974600;28;20073;-76
2023/12/22 01:42:32;;;;;;;13.98;3.00;;;;;;;7.38;74.84;97983.88;4974170;28;20467;-77
2023/12/22 01:44:58;;;;;;;28.88;4.03;;;;;;;7.38;75.10;97996.97;4991843;28;20466;-77
2023/12/22 01:47:25;;;;;;;18.95;3.42;;;;;;;7.38;75.03;98025.78;5002977;28;20053;-79
2023/12/22 01:49:52;;;;;;;19.88;4.25;;;;;;;7.37;74.44;98021.44;5011344;28;20085;-83
2023/12/22 01:52:19;;;;;;;21.80;4.00;;;;;;;7.38;74.27;98017.06;5011164;28;20046;-76
2023/12/22 01:54:46;;;;;;;25.70;4.50;;;;;;;7.35;74.11;98020.75;4993972;28;20054;-77
2023/12/22 01:57:17;;;;;;;14.95;3.15;;;;;;;7.33;73.78;98009.53;4989258;28;20466;-78
2023/12/22 01:59:45;;;;;;;17.92;4.07;;;;;;;7.30;74.41;98015.00;4991449;28;20129;-77
2023/12/22 02:02:12;;;;;;;20.52;4.57;;;;;;;7.28;74.20;98027.34;4991346;28;20054;-78
2023/12/22 02:04:39;;;;;;;15.45;2.60;;;;;;;7.26;74.77;98034.50;4991464;28;20042;-77
2023/12/22 02:07:08;;;;;;;22.55;4.05;;;;;;;7.22;74.75;98053.97;5019727;28;20033;-79
2023/12/22 02:09:35;;;;;;;20.88;3.72;;;;;;;7.21;75.17;98041.84;4993822;28;20058;-77
2023/12/22 02:12:02;;;;;;;20.58;3.58;;;;;;;7.20;75.14;98027.06;5010944;28;20084;-79
2023/12/22 02:14:29;;;;;;;18.20;2.95;;;;;;;7.18;74.86;98037.66;5010898;28;20100;-78
2023/12/22 02:17:21;;;;;;;14.82;3.13;;;;;;;7.13;71.95;98031.91;4992463;28;20506;-80
2023/12/22 02:19:49;;;;;;;16.80;3.23;;;;;;;7.15;74.66;98027.41;4974410;28;20064;-79
2023/12/22 02:22:15;;;;;;;18.92;3.90;;;;;;;7.15;75.13;98046.53;4991706;28;20324;-77
2023/12/22 02:24:42;;;;;;;20.00;3.97;;;;;;;7.14;75.19;98028.34;4991347;28;20069;-83
2023/12/22 02:27:48;;;;;;;25.48;4.22;;;;;;;7.10;72.38;98029.53;4991145;28;20077;-79
2023/12/22 02:30:39;;;;;;;20.80;3.72;;;;;;;7.13;72.56;98040.59;5006452;28;20510;-77
2023/12/22 02:33:07;;;;;;;18.80;3.33;;;;;;;7.18;75.19;98037.66;5010779;28;20050;-77
2023/12/22 02:35:37;;;;;;;23.10;4.40;;;;;;;7.19;74.36;98034.09;4994011;28;20044;-78
2023/12/22 02:38:06;;;;;;;17.70;4.22;;;;;;;7.21;74.80;98031.38;4992855;28;20047;-76
2023/12/22 02:40:34;;;;;;;20.88;4.25;;;;;;;7.23;74.80;98014.63;4995075;28;20493;-80
2023/12/22 02:43:02;;;;;;;18.73;3.45;;;;;;;7.24;74.87;98008.44;4994862;28;20042;-77
2023/12/22 02:45:30;;;;;;;16.20;2.92;;;;;;;7.25;74.50;98017.13;4995179;28;20049;-76
2023/12/22 02:47:56;;;;;;;17.67;3.70;;;;;;;7.25;74.30;98009.28;4994797;28;20046;-76
2023/12/22 02:50:23;;;;;;;29.20;4.72;;;;;;;7.24;74.43;98011.03;4977751;28;20082;-77
2023/12/22 02:52:49;;;;;;;16.58;3.13;;;;;;;7.24;74.27;98012.81;4995751;28;20046;-79
2023/12/22 02:55:16;;;;;;;24.70;3.58;;;;;;;7.23;74.18;98013.75;5013655;28;20052;-81
2023/12/22 02:57:43;;;;;;;25.42;3.70;;;;;;;7.22;73.99;98006.88;4996414;28;20045;-77
2023/12/22 03:00:10;;;;;;;17.30;4.13;;;;;;;7.24;74.62;98004.97;5014198;28;20128;-77
2023/12/22 03:02:36;;;;;;;23.23;3.70;;;;;;;7.24;74.42;98007.59;5014005;28;20057;-76
2023/12/22 03:05:04;;;;;;;21.77;3.80;;;;;;;7.26;74.48;98008.31;4998049;28;20142;-78
2023/12/22 03:07:30;;;;;;;18.13;4.22;;;;;;;7.27;74.67;98010.00;4994252;28;20149;-76
2023/12/22 03:09:57;;;;;;;20.60;4.18;;;;;;;7.28;74.70;98012.50;4994472;28;20380;-79
2023/12/22 03:12:24;;;;;;;17.02;3.70;;;;;;;7.29;74.61;98002.88;4976926;28;20050;-77
2023/12/22 03:14:50;;;;;;;12.68;3.08;;;;;;;7.32;74.92;97996.59;4995183;28;20047;-77
2023/12/22 03:17:17;;;;;;;16.25;2.97;;;;;;;7.33;74.63;97977.31;4994239;28;20466;-78
2023/12/22 03:19:43;;;;;;;18.42;3.20;;;;;;;7.35;74.71;97984.09;4977078;28;20140;-76
2023/12/22 03:22:10;;;;;;;15.85;3.72;;;;;;;7.37;74.41;97987.44;4994501;28;20133;-77
2023/12/22 03:24:37;;;;;;;15.75;3.08;;;;;;;7.38;74.74;97989.13;4983760;28;20045;-82
2023/12/22 03:27:04;;;;;;;22.75;4.68;;;;;;;7.39;74.30;97982.94;5013316;28;20108;-75
2023/12/22 03:29:30;;;;;;;17.70;2.90;;;;;;;7.41;74.65;97975.78;5013709;28;20046;-77
2023/12/22 03:31:57;;;;;;;22.90;3.42;;;;;;;7.43;74.41;97994.00;5013531;28;20079;-77
2023/12/22 03:34:23;;;;;;;16.50;2.42;;;;;;;7.45;74.52;98007.00;5011160;28;20072;-77
2023/12/22 03:36:50;;;;;;;19.15;3.67;;;;;;;7.44;73.59;98006.13;4976838;28;20085;-76
2023/12/22 03:39:17;;;;;;;21.98;3.83;;;;;;;7.45;74.25;98002.59;4993884;28;20130;-77
2023/12/22 03:41:43;;;;;;;16.08;3.72;;;;;;;7.43;74.23;98015.78;4993829;28;20046;-78
2023/12/22 03:44:10;;;;;;;15.52;2.38;;;;;;;7.39;74.01;98008.25;4994016;28;20104;-77
2023/12/22 03:46:36;;;;;;;14.93;2.03;;;;;;;7.34;74.29;97992.91;4986424;28;20057;-78
2023/12/22 03:49:03;;;;;;;17.88;2.75;;;;;;;7.30;74.05;98009.78;5012459;28;20057;-76
2023/12/22 03:51:30;;;;;;;12.68;2.28;;;;;;;7.26;74.60;97990.81;5013328;28;20427;-78
2023/12/22 03:53:56;;;;;;;11.60;2.05;;;;;;;7.23;74.34;97977.97;5013390;28;20112;-76
2023/12/22 03:56:23;;;;;;;15.55;2.70;;;;;;;7.23;75.41;97998.06;5000129;28;20042;-76
2023/12/22 03:58:49;;;;;;;13.27;2.42;;;;;;;7.22;75.32;98009.47;4993693;28;20042;-77
2023/12/22 04:01:16;;;;;;;12.75;2.03;;;;;;;7.23;75.50;97998.91;4976111;28;20049;-81
2023/12/22 04:03:43;;;;;;;13.93;2.63;;;;;;;7.24;75.71;98007.59;4976253;28;20069;-75
2023/12/22 04:06:09;;;;;;;10.25;2.13;;;;;;;7.25;75.58;98007.47;5000687;28;20050;-78
2023/12/22 04:08:36;;;;;;;19.27;2.20;;;;;;;7.28;75.68;98019.50;5012943;28;20052;-76
2023/12/22 04:11:03;;;;;;;12.70;1.85;;;;;;;7.29;75.61;98018.59;5012877;28;20129;-75
2023/12/22 04:13:29;;;;;;;8.93;1.98;;;;;;;7.30;75.65;98028.91;5012731;28;20058;-77
2023/12/22 04:15:56;;;;;;;13.18;1.85;;;;;;;7.32;75.20;98033.22;4991395;28;20117;-77
2023/12/22 04:18:22;;;;;;;6.72;1.70;;;;;;;7.29;75.07;98023.81;4993041;28;20506;-76
2023/12/22 04:20:53;;;;;;;9.85;2.00;;;;;;;7.29;74.84;98055.22;4975848;28;20050;-76
2023/12/22 04:23:19;;;;;;;8.55;1.60;;;;;;;7.27;74.99;98033.53;4993120;28;20483;-77
2023/12/22 04:25:46;;;;;;;6.32;1.30;;;;;;;7.24;74.91;98031.97;4992889;28;20569;-80
2023/12/22 04:28:12;;;;;;;9.38;1.25;;;;;;;7.22;74.99;98033.84;4993838;28;20072;-77
2023/12/22 04:30:39;;;;;;;9.90;1.40;;;;;;;7.20;75.34;98019.22;5012481;28;20124;-76
2023/12/22 04:33:05;;;;;;;5.00;1.15;;;;;;;7.17;75.10;98021.13;5012492;28;20092;-76
2023/12/22 04:35:32;;;;;;;6.35;1.55;;;;;;;7.17;75.53;98033.34;5012193;28;20084;-77
2023/12/22 04:37:59;;;;;;;4.72;1.30;;;;;;;7.14;74.95;98031.78;4980667;28;20041;-75
2023/12/22 04:40:27;;;;;;;6.00;1.20;;;;;;;7.13;74.90;98032.75;4975193;28;20483;-75
2023/12/22 04:42:54;;;;;;;6.07;1.30;;;;;;;7.13;75.18;98027.50;4975311;28;20486;-76
2023/12/22 04:45:21;;;;;;;2.78;0.90;;;;;;;7.12;75.39;98028.47;4975599;28;20100;-77
2023/12/22 04:47:48;;;;;;;8.77;1.42;;;;;;;7.12;75.27;98033.69;5001924;28;20092;-77
2023/12/22 04:50:15;;;;;;;9.90;1.92;;;;;;;7.10;74.96;98027.72;4995202;28;20082;-75
2023/12/22 04:52:41;;;;;;;6.30;1.33;;;;;;;7.10;74.90;98022.50;5011879;28;20080;-76
2023/12/22 04:55:08;;;;;;;5.05;1.00;;;;;;;7.09;74.84;98018.22;4994835;28;20042;-78
2023/12/22 04:57:34;;;;;;;8.23;1.50;;;;;;;7.08;74.75;98007.84;5005962;28;20128;-75
2023/12/22 05:00:01;;;;;;;5.50;1.40;;;;;;;7.04;74.32;98036.84;4991851;28;20046;-76
2023/12/22 05:02:28;;;;;;;8.65;1.30;;;;;;;7.01;74.63;98037.06;4992369;28;20130;-75
2023/12/22 05:04:55;;;;;;;6.47;1.45;;;;;;;6.96;74.24;98039.19;4992254;28;20543;-76
2023/12/22 05:07:22;;;;;;;5.32;1.10;;;;;;;6.94;74.41;98064.59;4975328;28;20046;-75
2023/12/22 05:09:48;;;;;;;8.75;1.75;;;;;;;6.90;74.41;98057.91;4992296;28;20042;-76
2023/12/22 05:12:15;;;;;;;9.40;1.27;;;;;;;6.89;74.95;98053.63;4992284;28;20364;-77
2023/12/22 05:14:41;;;;;;;6.97;1.20;;;;;;;6.87;74.86;98053.72;4975104;28;20046;-77
2023/12/22 05:17:08;;;;;;;12.23;2.42;;;;;;;6.85;74.88;98057.38;4992096;28;20084;-76
2023/12/22 05:19:34;;;;;;;10.75;1.83;;;;;;;6.84;75.11;98056.53;5007290;28;20045;-75
2023/12/22 05:22:00;;;;;;;7.07;1.63;;;;;;;6.84;74.93;98051.31;5012019;28;20092;-75
2023/12/22 05:24:27;;;;;;;9.13;1.80;;;;;;;6.82;74.52;98053.19;4994102;28;20050;-77
2023/12/22 05:26:53;;;;;;;6.50;1.83;;;;;;;6.82;74.76;98050.59;5011373;28;20486;-78
2023/12/22 05:29:20;;;;;;;12.27;1.95;;;;;;;6.82;74.76;98054.97;5000828;28;20054;-76
2023/12/22 05:31:47;;;;;;;10.77;2.08;;;;;;;6.81;74.75;98056.78;4991727;28;20108;-75
2023/12/22 05:34:13;;;;;;;9.93;2.22;;;;;;;6.79;74.70;98058.63;4974738;28;20056;-76
2023/12/22 05:36:40;;;;;;;12.40;1.80;;;;;;;6.79;74.97;98058.63;4991876;28;20160;-77
2023/12/22 05:39:09;;;;;;;13.88;2.53;;;;;;;6.78;74.78;98077.91;4997503;28;20039;-78
2023/12/22 05:41:38;;;;;;;14.82;2.33;;;;;;;6.77;74.42;98048.28;5010939;28;20056;-75
2023/12/22 05:44:06;;;;;;;15.05;2.45;;;;;;;6.77;74.76;98042.22;5011432;28;20042;-77
2023/12/22 05:46:38;;;;;;;12.60;2.08;;;;;;;6.77;73.18;98068.38;5011631;28;20084;-75
2023/12/22 05:49:05;;;;;;;11.82;3.13;;;;;;;6.80;74.75;98076.00;4989759;28;20038;-76
2023/12/22 05:51:39;;;;;;;14.63;2.55;;;;;;;6.81;71.87;98066.38;4974415;28;20061;-77
2023/12/22 05:54:10;;;;;;;17.23;2.38;;;;;;;6.85;74.72;98062.63;4991912;28;20540;-76
2023/12/22 05:56:37;;;;;;;14.52;2.63;;;;;;;6.87;75.36;98064.19;4991793;28;20109;-76
2023/12/22 05:59:03;;;;;;;19.10;2.72;;;;;;;6.90;75.49;98082.28;4992512;28;20050;-80
2023/12/22 06:01:30;;;;;;;20.05;2.88;;;;;;;6.91;75.57;98083.94;5010370;28;20129;-78
2023/12/22 06:03:57;;;;;;;18.55;3.08;;;;;;;6.94;75.28;98100.38;5011006;28;20049;-76
2023/12/22 06:06:23;;;;;;;17.42;2.40;;;;;;;6.98;75.77;98093.97;5011314;28;20042;-76
2023/12/22 06:08:50;;;;;;;16.75;3.38;;;;;;;7.02;76.17;98082.34;5011237;28;20053;-78
2023/12/22 06:11:17;;;;;;;23.90;3.40;;;;;;;7.08;76.01;98115.97;4980312;28;20545;-76
2023/12/22 06:13:43;;;;;;;18.50;2.92;;;;;;;7.11;76.12;98099.22;4995488;28;20047;-78
2023/12/22 06:16:14;;;;;;;15.63;2.78;;;;;;;7.15;75.61;98105.91;4977467;28;20186;-78
2023/12/22 06:18:42;;;;;;;25.30;3.35;;;;;;;7.20;75.57;98092.47;4977766;28;20061;-77
2023/12/22 06:21:10;;;;;;;14.55;3.40;;;;;;;7.23;74.79;98087.03;5005585;28;20514;-80
2023/12/22 06:23:37;;;;;;;11.35;2.80;;;;;;;7.26;75.44;98103.34;4997210;28;20042;-78
2023/12/22 06:26:11;;;;;;;13.20;2.70;;;;;;;7.28;72.71;98105.88;5014649;28;20046;-78
2023/12/22 06:28:39;;;;;;;19.58;3.00;;;;;;;7.34;74.93;98112.47;5014317;28;20443;-81
2023/12/22 06:31:07;;;;;;;20.77;2.95;;;;;;;7.37;75.36;98114.88;4988655;28;20129;-78
2023/12/22 06:33:33;;;;;;;19.33;3.33;;;;;;;7.40;75.08;98105.00;4995099;28;20130;-77
2023/12/22 06:36:00;;;;;;;17.10;2.42;;;;;;;7.43;75.30;98111.81;4994929;28;20070;-77
2023/12/22 06:38:26;;;;;;;12.35;2.83;;;;;;;7.46;75.31;98126.47;4977452;28;20050;-80
2023/12/22 06:40:53;;;;;;;18.20;2.83;;;;;;;7.48;75.19;98122.78;4998460;28;20081;-79
2023/12/22 06:43:19;;;;;;;14.48;2.80;;;;;;;7.50;75.00;98130.53;5014026;28;20046;-78
2023/12/22 06:45:46;;;;;;;17.00;2.88;;;;;;;7.50;74.99;98126.16;5014202;28;20045;-77
2023/12/22 06:48:12;;;;;;;22.70;2.80;;;;;;;7.53;74.87;98138.19;5014305;28;20077;-80
2023/12/22 06:50:39;;;;;;;22.10;3.22;;;;;;;7.53;74.58;98138.19;5014350;28;20050;-78
2023/12/22 06:53:07;;;;;;;16.00;3.63;;;;;;;7.55;74.98;98159.84;5102841;23;20098;-75
2023/12/22 06:55:47;;;;;;;17.88;3.47;;;;;;;7.57;74.83;98142.25;5014560;28;20132;-75
2023/12/22 06:58:14;;;;;;;18.50;3.20;;;;;;;7.58;74.92;98128.22;5014307;28;20050;-74
2023/12/22 07:00:40;;;;;;;19.73;3.28;;;;;;;7.60;74.99;98120.25;5014511;28;20058;-74
2023/12/22 07:03:07;;;;;;;18.60;3.15;;;;;;;7.59;74.97;98129.88;5012873;28;20049;-71
2023/12/22 07:05:36;;;;;;;17.70;3.53;;;;;;;7.60;74.67;98139.44;5014244;28;20050;-72
2023/12/22 07:08:04;;;;;;;18.67;3.03;;;;;;;7.63;74.85;98148.84;4996741;28;20061;-73
2023/12/22 07:10:30;;;;;;;17.95;3.50;;;;;;;7.64;74.49;98151.38;5014143;28;20081;-73
2023/12/22 07:12:57;;;;;;;17.73;3.42;;;;;;;7.66;74.93;98152.06;5002425;28;20496;-72
2023/12/22 07:15:24;;;;;;;17.00;3.05;;;;;;;7.68;74.70;98149.34;4994733;28;20054;-73
2023/12/22 07:17:51;;;;;;;16.95;2.95;;;;;;;7.69;75.14;98146.63;4994443;28;20385;-71
2023/12/22 07:20:18;;;;;;;17.02;3.28;;;;;;;7.72;74.96;98147.34;4994518;28;20072;-75
2023/12/22 07:22:45;;;;;;;18.67;2.85;;;;;;;7.73;75.17;98152.47;5000760;28;20133;-74
2023/12/22 07:25:12;;;;;;;11.10;2.70;;;;;;;7.75;75.11;98158.47;5013030;28;20046;-72
2023/12/22 07:27:40;;;;;;;18.02;2.80;;;;;;;7.76;75.02;98164.50;5011750;28;20509;-73
2023/12/22 07:30:07;;;;;;;14.40;2.65;;;;;;;7.79;75.26;98167.78;5013974;28;20085;-76
2023/12/22 07:32:34;;;;;;;13.82;2.72;;;;;;;7.79;75.32;98165.16;5013802;28;20518;-73
2023/12/22 07:35:00;;;;;;;15.65;3.05;;;;;;;7.80;74.94;98169.44;5013836;28;20058;-73
2023/12/22 07:37:28;;;;;;;18.95;3.70;;;;;;;7.81;74.83;98160.63;5000898;28;20611;-71
2023/12/22 07:39:54;;;;;;;19.70;2.47;;;;;;;7.81;74.26;98186.81;4994209;28;20491;-74
2023/12/22 07:42:21;;;;;;;14.48;3.22;;;;;;;7.83;75.05;98189.34;4994164;28;20061;-72
2023/12/22 07:44:48;;;;;;;15.68;2.92;;;;;;;7.84;74.66;98190.19;4993904;28;20554;-72
2023/12/22 07:47:14;;;;;;;21.52;3.10;;;;;;;7.86;75.17;98191.75;5001460;28;20045;-72
2023/12/22 07:49:42;;;;;;;12.32;2.83;;;;;;;7.87;75.18;98182.94;5013716;28;20050;-70
2023/12/22 07:52:10;;;;;;;23.73;3.70;;;;;;;7.90;75.23;98194.97;5013298;28;20568;-71
2023/12/22 07:54:37;;;;;;;17.25;3.10;;;;;;;7.89;74.68;98183.66;5013519;28;20067;-72
2023/12/22 07:57:05;;;;;;;21.77;3.55;;;;;;;7.91;75.03;98192.25;5009395;28;20046;-72
2023/12/22 07:59:31;;;;;;;16.25;3.80;;;;;;;7.91;75.20;98196.66;4993945;28;20046;-73
2023/12/22 08:01:58;;;;;;;26.88;3.85;;;;;;;7.92;75.24;98201.78;4993663;28;20054;-73
2023/12/22 08:04:25;;;;;;;19.70;3.28;;;;;;;7.93;75.19;98207.88;4993676;28;20093;-68
2023/12/22 08:06:52;;;;;;;20.38;3.58;;;;;;;7.95;75.36;98222.53;4993183;28;20053;-72
2023/12/22 08:09:20;;;;;;;18.02;3.55;;;;;;;7.97;75.49;98214.56;5001164;28;20077;-71
2023/12/22 08:11:47;;;;;;;23.58;3.55;;;;;;;8.01;76.17;98223.03;4993539;28;20046;-72
2023/12/22 08:14:14;;;;;;;20.90;3.83;;;;;;;8.02;75.91;98198.50;4993547;28;20086;-73
2023/12/22 08:16:40;;;;;;;15.50;3.63;;;;;;;8.04;75.86;98194.00;4993320;28;20408;-72
2023/12/22 08:19:07;;;;;;;17.05;3.22;;;;;;;8.06;76.15;98202.56;5007560;28;20050;-69
2023/12/22 08:21:34;;;;;;;16.08;3.15;;;;;;;8.08;75.98;98195.44;5012987;28;20057;-69
2023/12/22 08:24:11;;;;;;;15.48;3.60;;;;;;;8.11;76.03;98210.94;5012864;28;20486;-72
2023/12/22 08:26:48;;;;;;;17.40;3.13;;;;;;;8.15;76.11;98203.72;5012916;28;20080;-72
2023/12/22 08:29:19;;;;;;;18.45;3.67;;;;;;;8.15;75.77;98204.53;4998757;28;20051;-72
2023/12/22 08:31:46;;;;;;;22.90;4.20;;;;;;;8.17;75.94;98191.31;4975771;28;20133;-72
2023/12/22 08:34:13;;;;;;;18.63;4.07;;;;;;;8.17;75.57;98215.75;4993112;28;20057;-72
2023/12/22 08:36:39;;;;;;;18.00;2.85;;;;;;;8.19;75.70;98218.25;4993188;28;20064;-70
2023/12/22 08:39:07;;;;;;;20.00;3.60;;;;;;;8.18;75.62;98212.19;5001608;28;20054;-72
2023/12/22 08:41:37;;;;;;;17.00;2.88;;;;;;;8.20;75.82;98197.19;5012456;28;20051;-71
2023/12/22 08:44:04;;;;;;;19.23;3.30;;;;;;;8.20;75.80;98198.97;4995164;28;20096;-73
2023/12/22 08:46:32;;;;;;;19.40;4.05;;;;;;;8.20;75.46;98212.06;5012322;28;20050;-72
2023/12/22 08:48:59;;;;;;;15.13;3.28;;;;;;;8.21;76.02;98209.34;5006109;28;20381;-73
2023/12/22 08:51:27;;;;;;;12.07;2.92;;;;;;;8.20;75.40;98186.72;4996277;28;20058;-73
2023/12/22 08:53:54;;;;;;;20.92;3.05;;;;;;;8.21;75.51;98183.13;4992778;28;20062;-70
2023/12/22 08:56:24;;;;;;;13.35;2.55;;;;;;;8.19;74.60;98210.41;4992631;28;20104;-72
2023/12/22 08:58:52;;;;;;;15.57;2.88;;;;;;;8.21;75.83;98214.59;4992007;28;20046;-73
2023/12/22 09:01:19;;;;;;;16.25;3.03;;;;;;;8.20;75.62;98181.47;4975622;28;20112;-73
2023/12/22 09:03:46;;;;;;;12.18;2.22;;;;;;;8.20;75.76;98189.31;5011460;28;20064;-73
2023/12/22 09:06:16;;;;;;;10.13;2.60;;;;;;;8.20;75.11;98201.59;5011677;28;20045;-71
2023/12/22 09:08:43;;;;;;;15.00;2.72;;;;;;;8.23;76.23;98205.75;5011168;28;20100;-72
2023/12/22 09:11:15;;;;;;;11.55;2.83;;;;;;;8.21;75.50;98222.44;5011114;28;20107;-73
2023/12/22 09:13:42;;;;;;;14.23;2.30;;;;;;;8.23;76.40;98222.34;4994063;28;20050;-71
2023/12/22 09:16:10;;;;;;;11.38;2.60;;;;;;;8.24;76.22;98220.53;4992135;28;20467;-72
2023/12/22 09:18:36;;;;;;;10.75;2.28;;;;;;;8.25;76.30;98233.53;4992140;28;20057;-73
2023/12/22 09:21:03;;;;;;;8.45;2.13;;;;;;;8.26;76.44;98229.16;4992157;28;20065;-74
2023/12/22 09:23:31;;;;;;;8.93;2.45;;;;;;;8.26;76.80;98229.16;5004415;28;20062;-73
2023/12/22 09:25:58;;;;;;;13.63;2.30;;;;;;;8.27;76.21;98215.94;5010755;28;20041;-73
2023/12/22 09:28:25;;;;;;;13.48;2.45;;;;;;;8.30;77.05;98222.72;5010988;28;20554;-73
2023/12/22 09:30:52;;;;;;;8.20;1.88;;;;;;;8.32;77.25;98228.69;5011210;28;20046;-73
2023/12/22 09:33:19;;;;;;;8.38;2.10;;;;;;;8.32;76.57;98212.97;5001048;28;20125;-72
2023/12/22 09:35:45;;;;;;;9.60;1.88;;;;;;;8.34;77.17;98211.06;4990410;28;20053;-74
2023/12/22 09:38:12;;;;;;;15.93;2.50;;;;;;;8.37;77.14;98215.25;4990995;28;20046;-71
2023/12/22 09:40:39;;;;;;;7.00;1.80;;;;;;;8.38;76.79;98214.31;4991030;28;20061;-70
2023/12/22 09:43:07;;;;;;;16.17;2.72;;;;;;;8.39;77.16;98221.22;5008045;28;20058;-75
2023/12/22 09:45:33;;;;;;;8.00;1.83;;;;;;;8.40;76.99;98221.09;4993265;28;20054;-74
2023/12/22 09:48:01;;;;;;;10.85;2.15;;;;;;;8.42;77.33;98219.22;5010824;28;20069;-74
2023/12/22 09:50:30;;;;;;;9.45;2.08;;;;;;;8.44;76.91;98222.56;5002639;28;20050;-74
2023/12/22 09:52:57;;;;;;;13.30;2.40;;;;;;;8.43;76.84;98213.03;4994743;28;20050;-74
2023/12/22 09:55:25;;;;;;;8.60;1.90;;;;;;;8.42;76.75;98185.13;4991461;28;20523;-75
2023/12/22 09:57:52;;;;;;;8.93;2.00;;;;;;;8.42;76.80;98179.91;4974890;28;20061;-74
2023/12/22 10:00:20;;;;;;;6.13;1.70;;;;;;;8.40;76.71;98175.69;5001229;28;20434;-75
2023/12/22 10:02:46;;;;;;;6.05;1.67;;;;;;;8.38;76.67;98170.56;4992771;28;20217;-74
2023/12/22 10:05:14;;;;;;;8.23;1.60;;;;;;;8.35;76.96;98178.66;5010565;28;20049;-74
2023/12/22 10:07:44;;;;;;;5.30;1.40;;;;;;;8.32;76.43;98171.84;5010417;28;20498;-72
2023/12/22 10:10:12;;;;;;;6.95;1.52;;;;;;;8.33;77.14;98181.38;4992865;28;20094;-71
2023/12/22 10:12:39;;;;;;;8.25;1.25;;;;;;;8.33;77.15;98175.28;4973163;28;20059;-73
2023/12/22 10:15:08;;;;;;;6.97;1.25;;;;;;;8.32;76.97;98186.75;4991205;28;20054;-75
2023/12/22 10:17:36;;;;;;;8.20;1.38;;;;;;;8.34;77.19;98187.47;4991349;28;20550;-71
2023/12/22 10:20:03;;;;;;;10.93;1.60;;;;;;;8.35;77.23;98189.16;5003944;28;20049;-72
2023/12/22 10:22:30;;;;;;;6.93;1.52;;;;;;;8.36;77.48;98182.94;5010469;28;20468;-73
2023/12/22 10:24:56;;;;;;;7.90;1.80;;;;;;;8.39;77.33;98174.00;4993708;28;20050;-73
2023/12/22 10:27:23;;;;;;;9.30;1.40;;;;;;;8.40;77.35;98192.25;5010812;28;20475;-72
2023/12/22 10:29:54;;;;;;;8.20;2.15;;;;;;;8.43;77.13;98183.34;5002006;28;20042;-74
2023/12/22 10:32:21;;;;;;;8.40;1.45;;;;;;;8.43;77.16;98189.44;4974071;28;20061;-73
2023/12/22 10:34:51;;;;;;;9.95;1.70;;;;;;;8.45;77.18;98184.88;5007436;28;20132;-72
2023/12/22 10:37:19;;;;;;;6.60;1.42;;;;;;;8.46;77.26;98178.69;5010697;28;20144;-71
2023/12/22 10:39:54;;;;;;;9.25;1.63;;;;;;;8.46;76.92;98199.66;5008919;28;20052;-75
2023/12/22 10:42:21;;;;;;;6.75;1.50;;;;;;;8.50;77.38;98181.09;4992152;28;20077;-73
2023/12/22 10:44:49;;;;;;;8.55;1.60;;;;;;;8.52;77.22;98187.06;4994100;28;20047;-74
2023/12/22 10:47:21;;;;;;;11.57;1.80;;;;;;;8.54;77.43;98193.91;5020008;28;20128;-73
2023/12/22 10:49:48;;;;;;;11.57;2.00;;;;;;;8.55;77.30;98179.00;5008430;28;20054;-73
2023/12/22 10:52:20;;;;;;;8.07;1.52;;;;;;;8.55;76.65;98179.84;5006666;28;20057;-75
2023/12/22 10:54:50;;;;;;;10.38;1.90;;;;;;;8.54;76.59;98170.31;4998480;28;20060;-75
2023/12/22 10:57:19;;;;;;;6.07;1.42;;;;;;;8.57;77.17;98174.47;5010059;28;20462;-75
2023/12/22 10:59:47;;;;;;;12.82;1.50;;;;;;;8.57;77.18;98172.69;4995665;28;20053;-73
2023/12/22 11:02:30;;;;;;;4.60;1.30;;;;;;;8.57;76.82;98161.38;5011830;28;20054;-73
2023/12/22 11:05:01;;;;;;;9.38;1.80;;;;;;;8.57;76.21;98158.75;4984771;28;20050;-74
2023/12/22 11:07:29;;;;;;;8.02;1.27;;;;;;;8.58;77.32;98142.91;4991701;28;20054;-74
2023/12/22 11:10:03;;;;;;;5.32;1.40;;;;;;;8.56;76.20;98150.03;4989487;28;20046;-73
2023/12/22 11:12:38;;;;;;;6.40;1.55;;;;;;;8.58;77.13;98166.50;4990638;28;20051;-73
2023/12/22 11:15:06;;;;;;;6.40;1.52;;;;;;;8.58;77.34;98163.88;4997373;28;20506;-73
2023/12/22 11:17:35;;;;;;;7.47;1.25;;;;;;;8.59;77.12;98164.69;4998981;28;20054;-73
2023/12/22 11:20:04;;;;;;;5.25;1.50;;;;;;;8.57;76.84;98159.56;4992156;28;20419;-73
2023/12/22 11:22:31;;;;;;;6.68;1.30;;;;;;;8.55;76.88;98161.47;4992182;28;20046;-73
2023/12/22 11:25:00;;;;;;;6.68;1.38;;;;;;;8.54;76.24;98164.22;4996270;28;20050;-74
2023/12/22 11:27:28;;;;;;;6.75;1.58;;;;;;;8.53;76.68;98150.28;5080566;23;20498;-71
2023/12/22 11:29:55;;;;;;;6.68;1.33;;;;;;;8.53;76.99;98145.03;5032896;28;20077;-73
2023/12/22 11:32:22;;;;;;;4.75;1.25;;;;;;;8.53;76.95;98139.78;5032832;28;20096;-73
2023/12/22 11:34:49;;;;;;;5.80;1.40;;;;;;;8.53;76.92;98131.06;5033007;28;20053;-72
2023/12/22 11:37:16;;;;;;;4.13;0.70;;;;;;;8.52;77.03;98118.88;5014327;28;20172;-73
2023/12/22 11:39:44;;;;;;;8.18;1.20;;;;;;;8.50;76.89;98116.38;4997888;28;20049;-72